createdAt,value
2022-12-08T00:02:06.935Z,10.57
2022-12-08T00:04:54.669Z,9.10
2022-12-08T00:07:41.092Z,10.13
2022-12-08T00:10:39.631Z,9.40
2022-12-08T00:12:57.410Z,10.37
2022-12-08T00:15:25.024Z,9.20
2022-12-08T00:17:52.536Z,9.13
2022-12-08T00:20:20.250Z,8.80
2022-12-08T00:22:49.146Z,8.30
2022-12-08T00:25:16.858Z,10.30
2022-12-08T00:27:44.434Z,10.07
2022-12-08T00:30:12.403Z,9.23
2022-12-08T00:32:39.890Z,9.67
2022-12-08T00:35:07.952Z,8.90
2022-12-08T00:37:35.676Z,8.40
2022-12-08T00:40:05.316Z,9.37
2022-12-08T00:42:33.090Z,9.67
2022-12-08T00:45:00.589Z,9.10
2022-12-08T00:47:28.081Z,9.80
2022-12-08T00:49:55.538Z,9.83
2022-12-08T00:52:23.027Z,9.43
2022-12-08T00:54:50.529Z,9.93
2022-12-08T00:57:19.398Z,9.40
2022-12-08T00:59:46.907Z,10.43
2022-12-08T01:02:14.438Z,10.30
2022-12-08T01:04:42.034Z,9.90
2022-12-08T01:07:09.778Z,9.67
2022-12-08T01:09:37.574Z,10.17
2022-12-08T01:12:05.554Z,9.30
2022-12-08T01:14:34.496Z,9.07
2022-12-08T01:17:02.044Z,8.70
2022-12-08T01:19:30.754Z,9.90
2022-12-08T01:21:58.294Z,10.10
2022-12-08T01:24:25.852Z,11.80
2022-12-08T01:26:53.515Z,9.23
2022-12-08T01:29:21.098Z,9.80
2022-12-08T01:31:49.952Z,8.47
2022-12-08T01:34:17.451Z,10.60
2022-12-08T01:36:45.236Z,11.73
2022-12-08T01:39:16.643Z,10.60
2022-12-08T01:41:45.091Z,11.70
2022-12-08T01:44:50.092Z,10.20
2022-12-08T01:47:18.962Z,10.37
2022-12-08T01:49:46.519Z,11.40
2022-12-08T01:52:17.620Z,10.27
2022-12-08T01:54:47.440Z,11.70
2022-12-08T01:57:18.490Z,10.03
2022-12-08T01:59:49.016Z,9.73
2022-12-08T02:02:16.863Z,10.30
2022-12-08T02:04:45.868Z,10.87
2022-12-08T02:07:14.321Z,11.43
2022-12-08T02:09:42.784Z,11.83
2022-12-08T02:12:11.178Z,10.60
2022-12-08T02:14:38.701Z,10.20
2022-12-08T02:17:16.979Z,10.93
2022-12-08T02:20:18.378Z,11.50
2022-12-08T02:22:53.099Z,10.73
2022-12-08T02:25:27.462Z,11.43
2022-12-08T02:28:01.208Z,10.30
2022-12-08T02:30:33.616Z,10.60
2022-12-08T02:33:39.805Z,11.03
2022-12-08T02:36:14.135Z,11.27
2022-12-08T02:38:48.914Z,10.10
2022-12-08T02:41:31.122Z,10.57
2022-12-08T02:44:02.234Z,10.10
2022-12-08T02:46:32.228Z,10.30
2022-12-08T02:49:01.440Z,10.53
2022-12-08T02:51:28.983Z,9.60
2022-12-08T02:53:56.682Z,10.97
2022-12-08T02:56:37.802Z,11.50
2022-12-08T02:59:25.082Z,10.17
2022-12-08T03:02:03.286Z,10.60
2022-12-08T03:04:40.007Z,11.00
2022-12-08T03:07:09.214Z,10.67
2022-12-08T03:09:39.601Z,11.60
2022-12-08T03:12:14.096Z,11.50
2022-12-08T03:14:44.587Z,10.33
2022-12-08T03:17:12.381Z,11.83
2022-12-08T03:19:43.380Z,12.63
2022-12-08T03:22:12.390Z,10.43
2022-12-08T03:24:41.999Z,11.87
2022-12-08T03:27:11.455Z,11.30
2022-12-08T03:29:38.986Z,11.73
2022-12-08T03:32:11.913Z,13.03
2022-12-08T03:34:43.053Z,11.90
2022-12-08T03:37:10.634Z,10.87
2022-12-08T03:39:38.110Z,11.43
2022-12-08T03:42:05.716Z,11.03
2022-12-08T03:44:33.200Z,10.80
2022-12-08T03:47:00.687Z,11.63
2022-12-08T03:49:28.204Z,11.13
2022-12-08T03:51:57.055Z,12.00
2022-12-08T03:54:25.078Z,10.70
2022-12-08T03:56:52.581Z,9.90
2022-12-08T03:59:20.213Z,13.37
2022-12-08T04:01:47.766Z,12.30
2022-12-08T04:04:15.334Z,11.27
2022-12-08T04:06:42.850Z,12.13
2022-12-08T04:09:11.708Z,11.50
2022-12-08T04:11:39.204Z,11.53
2022-12-08T04:14:06.704Z,11.87
2022-12-08T04:16:34.275Z,12.00
2022-12-08T04:19:01.889Z,11.20
2022-12-08T04:21:29.438Z,12.65
2022-12-08T04:24:01.050Z,11.32
2022-12-08T04:26:30.580Z,10.97
2022-12-08T04:28:58.108Z,11.53
2022-12-08T04:31:25.774Z,12.50
2022-12-08T04:33:53.402Z,11.03
2022-12-08T04:36:21.092Z,11.30
2022-12-08T04:38:48.627Z,11.57
2022-12-08T04:41:16.112Z,11.40
2022-12-08T04:43:45.435Z,11.50
2022-12-08T04:46:13.033Z,13.00
2022-12-08T04:48:41.288Z,12.80
2022-12-08T04:51:09.074Z,10.70
2022-12-08T04:53:36.545Z,11.33
2022-12-08T04:56:04.229Z,11.43
2022-12-08T04:58:31.705Z,10.98
2022-12-08T05:01:00.598Z,10.57
2022-12-08T05:03:28.810Z,11.73
2022-12-08T05:05:56.637Z,11.90
2022-12-08T05:08:24.171Z,10.47
2022-12-08T05:10:51.762Z,11.87
2022-12-08T05:13:19.294Z,10.57
2022-12-08T05:15:46.799Z,10.10
2022-12-08T05:18:16.488Z,10.93
2022-12-08T05:20:44.002Z,10.97
2022-12-08T05:23:11.531Z,10.80
2022-12-08T05:25:39.061Z,10.50
2022-12-08T05:28:39.776Z,12.03
2022-12-08T05:30:54.143Z,10.30
2022-12-08T05:33:23.067Z,11.70
2022-12-08T05:35:50.592Z,11.20
2022-12-08T05:38:18.075Z,12.27
2022-12-08T05:40:45.660Z,10.77
2022-12-08T05:43:13.176Z,11.77
2022-12-08T05:45:40.731Z,10.03
2022-12-08T05:48:08.551Z,11.00
2022-12-08T05:50:37.617Z,10.17
2022-12-08T05:53:05.165Z,9.90
2022-12-08T05:55:33.057Z,10.93
2022-12-08T05:58:06.119Z,11.30
2022-12-08T06:00:35.683Z,10.10
2022-12-08T06:03:03.298Z,10.23
2022-12-08T06:05:30.884Z,8.97
2022-12-08T06:07:59.789Z,11.40
2022-12-08T06:10:27.307Z,11.67
2022-12-08T06:12:54.849Z,10.70
2022-12-08T06:15:22.342Z,11.13
2022-12-08T06:17:49.894Z,12.37
2022-12-08T06:20:17.462Z,10.30
2022-12-08T06:22:45.045Z,11.83
2022-12-08T06:25:13.930Z,12.03
2022-12-08T06:27:41.412Z,11.40
2022-12-08T06:30:09.727Z,10.00
2022-12-08T06:32:40.071Z,10.50
2022-12-08T06:35:08.385Z,8.40
2022-12-08T06:37:35.891Z,10.00
2022-12-08T06:40:03.980Z,10.97
2022-12-08T06:42:45.100Z,11.07
2022-12-08T06:45:13.046Z,16.40
2022-12-08T06:47:40.570Z,11.43
2022-12-08T06:50:09.655Z,10.70
2022-12-08T06:52:45.310Z,15.57
2022-12-08T06:55:35.312Z,16.70
2022-12-08T06:58:04.020Z,10.00
2022-12-08T07:00:31.578Z,10.10
2022-12-08T07:02:59.227Z,11.50
2022-12-08T07:05:26.810Z,10.60
2022-12-08T07:07:54.393Z,11.33
2022-12-08T07:10:22.146Z,17.70
2022-12-08T07:12:49.652Z,10.43
2022-12-08T07:15:18.788Z,10.90
2022-12-08T07:17:46.346Z,11.45
2022-12-08T07:20:36.569Z,10.80
2022-12-08T07:23:04.128Z,11.20
2022-12-08T07:25:31.646Z,11.20
2022-12-08T07:27:59.179Z,10.90
2022-12-08T07:30:28.131Z,11.20
2022-12-08T07:32:55.660Z,10.90
2022-12-08T07:35:23.258Z,12.00
2022-12-08T07:37:50.915Z,12.20
2022-12-08T07:40:18.583Z,12.60
2022-12-08T07:42:46.060Z,9.80
2022-12-08T07:45:13.548Z,11.23
2022-12-08T07:47:42.452Z,10.93
2022-12-08T07:50:10.171Z,11.53
2022-12-08T07:52:37.934Z,10.27
2022-12-08T07:55:06.161Z,11.63
2022-12-08T07:57:33.636Z,12.00
2022-12-08T08:00:01.185Z,11.00
2022-12-08T08:02:28.857Z,11.67
2022-12-08T08:04:57.963Z,11.10
2022-12-08T08:07:25.562Z,10.87
2022-12-08T08:09:53.101Z,9.73
2022-12-08T08:12:32.080Z,11.90
2022-12-08T08:15:00.744Z,10.83
2022-12-08T08:17:28.606Z,11.90
2022-12-08T08:19:57.760Z,12.30
2022-12-08T08:22:25.853Z,11.50
2022-12-08T08:24:53.752Z,11.50
2022-12-08T08:27:21.366Z,12.20
2022-12-08T08:29:48.907Z,10.77
2022-12-08T08:32:16.391Z,11.37
2022-12-08T08:34:44.216Z,10.97
2022-12-08T08:37:14.398Z,11.03
2022-12-08T08:39:43.033Z,11.20
2022-12-08T08:42:10.680Z,10.50
2022-12-08T08:44:38.860Z,12.23
2022-12-08T08:47:06.608Z,10.77
2022-12-08T08:49:34.213Z,12.10
2022-12-08T08:52:01.755Z,10.73
2022-12-08T08:54:30.918Z,10.83
2022-12-08T08:56:58.905Z,12.03
2022-12-08T08:59:26.701Z,10.70
2022-12-08T09:01:54.567Z,11.57
2022-12-08T09:04:23.084Z,10.77
2022-12-08T09:06:50.712Z,10.43
2022-12-08T09:09:18.458Z,10.17
2022-12-08T09:11:47.377Z,12.43
2022-12-08T09:14:15.731Z,11.40
2022-12-08T09:16:43.757Z,9.40
2022-12-08T09:19:11.362Z,10.80
2022-12-08T09:21:40.459Z,11.48
2022-12-08T09:24:10.448Z,9.93
2022-12-08T09:26:37.955Z,9.80
2022-12-08T09:29:06.777Z,9.47
2022-12-08T09:31:34.530Z,9.37
2022-12-08T09:34:02.071Z,10.57
2022-12-08T09:36:29.600Z,8.90
2022-12-08T09:38:57.210Z,10.60
2022-12-08T09:41:35.931Z,9.27
2022-12-08T09:44:21.367Z,9.30
2022-12-08T09:46:49.697Z,8.43
2022-12-08T09:49:19.454Z,9.47
2022-12-08T09:51:46.987Z,8.87
2022-12-08T09:54:18.343Z,9.27
2022-12-08T09:56:45.941Z,9.23
2022-12-08T09:59:23.923Z,9.20
2022-12-08T10:01:52.639Z,9.53
2022-12-08T10:04:24.387Z,9.70
2022-12-08T10:07:02.566Z,9.40
2022-12-08T10:09:37.210Z,8.40
2022-12-08T10:12:11.918Z,8.13
2022-12-08T10:14:43.974Z,9.27
2022-12-08T10:17:17.758Z,7.93
2022-12-08T10:19:46.897Z,7.83
2022-12-08T10:22:18.809Z,7.83
2022-12-08T10:24:53.742Z,8.30
2022-12-08T10:27:21.509Z,8.73
2022-12-08T10:29:50.334Z,8.10
2022-12-08T10:32:20.158Z,8.00
2022-12-08T10:35:04.295Z,8.20
2022-12-08T10:37:31.877Z,8.70
2022-12-08T10:40:06.123Z,6.63
2022-12-08T10:42:37.329Z,8.03
2022-12-08T10:45:19.081Z,6.80
2022-12-08T10:47:57.248Z,6.97
2022-12-08T10:50:30.185Z,7.40
2022-12-08T10:52:58.913Z,6.27
2022-12-08T10:55:26.786Z,6.50
2022-12-08T10:57:54.307Z,7.20
2022-12-08T11:00:26.538Z,7.10
2022-12-08T11:02:59.552Z,6.93
2022-12-08T11:05:31.108Z,7.33
2022-12-08T11:08:01.355Z,7.90
2022-12-08T11:10:34.755Z,6.60
2022-12-08T11:13:03.756Z,7.70
2022-12-08T11:15:41.710Z,6.93
2022-12-08T11:18:23.395Z,8.50
2022-12-08T11:20:58.365Z,6.57
2022-12-08T11:23:30.102Z,7.20
2022-12-08T11:26:03.152Z,7.03
2022-12-08T11:28:30.707Z,6.30
2022-12-08T11:31:02.480Z,7.40
2022-12-08T11:33:30.344Z,7.03
2022-12-08T11:36:02.010Z,6.70
2022-12-08T11:38:31.025Z,6.73
2022-12-08T11:41:02.665Z,6.57
2022-12-08T11:43:37.878Z,7.03
2022-12-08T11:46:14.448Z,6.40
2022-12-08T11:48:46.345Z,6.47
2022-12-08T11:51:17.740Z,7.17
2022-12-08T11:53:50.122Z,7.30
2022-12-08T11:56:21.252Z,7.60
2022-12-08T11:58:51.550Z,7.10
2022-12-08T12:01:22.780Z,6.00
2022-12-08T12:03:56.222Z,6.77
2022-12-08T12:07:05.270Z,7.80
2022-12-08T12:09:41.373Z,5.60
2022-12-08T12:12:15.835Z,6.90
2022-12-08T12:15:17.464Z,7.43
2022-12-08T12:17:49.139Z,6.33
2022-12-08T12:20:20.010Z,6.73
2022-12-08T12:22:50.320Z,6.50
2022-12-08T12:25:20.007Z,6.60
2022-12-08T12:27:49.271Z,6.70
2022-12-08T12:30:22.897Z,5.20
2022-12-08T12:32:54.585Z,6.63
2022-12-08T12:35:30.239Z,5.30
2022-12-08T12:38:00.215Z,4.80
2022-12-08T12:40:30.709Z,5.10
2022-12-08T12:43:31.861Z,4.70
2022-12-08T12:46:56.055Z,5.27
2022-12-08T12:49:53.114Z,4.73
2022-12-08T12:52:47.631Z,4.30
2022-12-08T12:55:41.413Z,5.03
2022-12-08T12:58:21.994Z,4.83
2022-12-08T13:00:49.527Z,3.53
2022-12-08T13:03:18.199Z,5.00
2022-12-08T13:05:51.510Z,4.70
2022-12-08T13:08:22.773Z,4.20
2022-12-08T13:10:59.389Z,3.33
2022-12-08T13:13:27.028Z,3.50
2022-12-08T13:15:56.380Z,3.80
2022-12-08T13:18:26.620Z,3.80
2022-12-08T13:20:59.706Z,2.80
2022-12-08T13:23:44.219Z,2.93
2022-12-08T13:26:21.211Z,2.30
2022-12-08T13:29:22.502Z,2.53
2022-12-08T13:31:52.338Z,2.50
2022-12-08T13:34:31.336Z,2.50
2022-12-08T13:37:08.954Z,2.83
2022-12-08T13:39:43.386Z,2.63
2022-12-08T13:42:18.262Z,2.80
2022-12-08T13:47:41.478Z,3.07
2022-12-08T13:51:23.652Z,2.80
2022-12-08T13:58:52.055Z,1.83
2022-12-08T14:01:21.588Z,2.43
2022-12-08T14:04:30.577Z,2.80
2022-12-08T14:06:40.173Z,2.87
2022-12-08T14:09:13.293Z,2.27
2022-12-08T14:11:42.427Z,3.60
2022-12-08T14:14:27.299Z,2.83
2022-12-08T14:17:06.080Z,3.00
2022-12-08T14:19:35.234Z,2.93
2022-12-08T14:22:07.410Z,2.50
2022-12-08T14:24:36.242Z,2.80
2022-12-08T14:27:05.578Z,3.00
2022-12-08T14:29:42.378Z,2.63
2022-12-08T14:32:24.887Z,2.57
2022-12-08T14:34:54.857Z,2.23
2022-12-08T14:37:23.047Z,2.37
2022-12-08T14:39:52.321Z,2.50
2022-12-08T14:42:23.660Z,2.37
2022-12-08T14:44:57.935Z,2.67
2022-12-08T14:47:29.922Z,2.67
2022-12-08T14:49:57.637Z,3.43
2022-12-08T14:52:25.826Z,2.80
2022-12-08T14:54:55.131Z,3.23
2022-12-08T14:57:23.194Z,2.03
2022-12-08T14:59:50.912Z,2.33
2022-12-08T15:02:29.080Z,2.70
2022-12-08T15:04:59.970Z,2.60
2022-12-08T15:07:29.379Z,2.23
2022-12-08T15:10:21.554Z,2.23
2022-12-08T15:13:00.588Z,3.03
2022-12-08T15:15:28.947Z,2.00
2022-12-08T15:18:03.667Z,2.10
2022-12-08T15:20:41.561Z,2.43
2022-12-08T15:23:20.751Z,2.63
2022-12-08T15:25:50.238Z,2.70
2022-12-08T15:28:19.268Z,2.23
2022-12-08T15:30:47.258Z,2.63
2022-12-08T15:33:14.860Z,2.43
2022-12-08T15:35:42.535Z,2.97
2022-12-08T15:38:18.858Z,2.53
2022-12-08T15:40:46.442Z,3.73
2022-12-08T15:43:15.276Z,2.33
2022-12-08T15:45:53.394Z,2.43
2022-12-08T15:48:27.868Z,2.80
2022-12-08T15:50:56.156Z,3.00
2022-12-08T15:53:23.813Z,3.43
2022-12-08T15:58:57.371Z,5.03
2022-12-08T16:01:26.236Z,5.43
2022-12-08T16:07:20.345Z,5.27
2022-12-08T16:09:34.940Z,5.30
2022-12-08T16:12:20.611Z,8.30
2022-12-08T16:17:40.508Z,5.77
2022-12-08T16:20:15.029Z,8.30
2022-12-08T16:23:07.963Z,6.87
2022-12-08T16:25:46.078Z,6.97
2022-12-08T16:28:52.203Z,6.80
2022-12-08T16:31:12.984Z,5.90
2022-12-08T16:33:41.501Z,6.17
2022-12-08T16:36:10.771Z,5.90
2022-12-08T16:38:38.423Z,6.20
2022-12-08T16:41:23.842Z,7.00
2022-12-08T16:43:54.218Z,6.67
2022-12-08T16:46:27.538Z,6.70
2022-12-08T16:48:59.678Z,6.40
2022-12-08T16:51:27.763Z,6.27
2022-12-08T16:53:58.360Z,7.60
2022-12-08T16:56:32.957Z,7.67
2022-12-08T16:59:07.940Z,6.20
2022-12-08T17:01:37.518Z,6.17
2022-12-08T17:06:54.215Z,6.70
2022-12-08T17:09:26.230Z,7.53
2022-12-08T17:12:00.322Z,7.60
2022-12-08T17:14:35.036Z,5.87
2022-12-08T17:17:07.608Z,6.77
2022-12-08T17:19:35.274Z,6.67
2022-12-08T17:22:03.224Z,6.70
2022-12-08T17:24:33.389Z,6.47
2022-12-08T17:27:03.955Z,6.80
2022-12-08T17:29:32.082Z,6.07
2022-12-08T17:32:02.100Z,6.87
2022-12-08T17:34:31.565Z,8.07
2022-12-08T17:36:59.536Z,6.90
2022-12-08T17:39:27.379Z,6.20
2022-12-08T17:41:55.017Z,6.63
2022-12-08T17:44:23.105Z,5.70
2022-12-08T17:46:53.268Z,6.43
2022-12-08T17:49:23.925Z,7.27
2022-12-08T17:51:54.892Z,7.17
2022-12-08T17:54:31.145Z,7.90
2022-12-08T17:56:59.157Z,6.63
2022-12-08T17:59:32.010Z,8.00
2022-12-08T18:02:05.526Z,8.93
2022-12-08T18:04:39.826Z,8.10
2022-12-08T18:07:08.973Z,8.53
2022-12-08T18:09:37.001Z,7.80
2022-12-08T18:12:07.919Z,8.73
2022-12-08T18:14:37.166Z,6.60
2022-12-08T18:17:06.917Z,6.73
2022-12-08T18:19:34.638Z,6.97
2022-12-08T18:22:02.313Z,7.03
2022-12-08T18:24:31.528Z,7.80
2022-12-08T18:27:11.300Z,8.10
2022-12-08T18:29:43.574Z,8.13
2022-12-08T18:32:11.278Z,7.87
2022-12-08T18:35:04.296Z,7.20
2022-12-08T18:37:32.490Z,10.20
2022-12-08T18:40:03.345Z,8.57
2022-12-08T18:42:37.037Z,8.73
2022-12-08T18:45:06.977Z,7.73
2022-12-08T18:47:35.847Z,7.03
2022-12-08T18:50:07.304Z,6.63
2022-12-08T18:52:37.969Z,8.13
2022-12-08T18:55:11.060Z,8.30
2022-12-08T18:57:54.128Z,8.17
2022-12-08T19:00:29.836Z,7.37
2022-12-08T19:03:00.147Z,7.53
2022-12-08T19:05:28.163Z,7.20
2022-12-08T19:07:55.848Z,8.00
2022-12-08T19:10:25.306Z,7.50
2022-12-08T19:12:53.308Z,7.03
2022-12-08T19:15:21.567Z,7.33
2022-12-08T19:17:51.291Z,8.30
2022-12-08T19:20:19.313Z,8.87
2022-12-08T19:22:48.953Z,9.13
2022-12-08T19:25:19.464Z,8.13
2022-12-08T19:27:48.612Z,7.83
2022-12-08T19:30:16.766Z,8.03
2022-12-08T19:32:46.353Z,7.40
2022-12-08T19:35:14.131Z,10.03
2022-12-08T19:37:47.426Z,11.10
2022-12-08T19:40:34.505Z,10.50
2022-12-08T19:43:21.037Z,6.87
2022-12-08T19:45:50.472Z,7.33
2022-12-08T19:48:18.130Z,6.67
2022-12-08T19:50:45.939Z,7.37
2022-12-08T19:53:17.543Z,6.90
2022-12-08T19:55:46.931Z,7.70
2022-12-08T19:58:15.991Z,9.17
2022-12-08T20:00:46.791Z,15.40
2022-12-08T20:03:16.291Z,6.67
2022-12-08T20:05:44.647Z,7.67
2022-12-08T20:08:12.811Z,7.00
2022-12-08T20:10:42.247Z,37.13
2022-12-08T20:13:28.328Z,10.50
2022-12-08T20:15:57.725Z,6.80
2022-12-08T20:18:27.992Z,6.13
2022-12-08T20:20:59.842Z,5.93
2022-12-08T20:23:27.579Z,6.10
2022-12-08T20:25:55.688Z,6.53
2022-12-08T20:28:23.633Z,7.10
2022-12-08T20:30:52.916Z,6.77
2022-12-08T20:33:23.490Z,6.80
2022-12-08T20:35:59.469Z,6.67
2022-12-08T20:38:27.311Z,6.27
2022-12-08T20:40:55.130Z,6.93
2022-12-08T20:43:22.967Z,6.20
2022-12-08T20:45:50.605Z,7.00
2022-12-08T20:48:18.332Z,6.50
2022-12-08T20:50:47.286Z,6.77
2022-12-08T20:53:15.100Z,6.63
2022-12-08T20:55:42.978Z,6.93
2022-12-08T20:58:10.858Z,6.70
2022-12-08T21:00:39.053Z,6.43
2022-12-08T21:03:06.911Z,6.43
2022-12-08T21:05:36.239Z,6.27
2022-12-08T21:08:06.082Z,6.20
2022-12-08T21:10:36.857Z,6.80
2022-12-08T21:13:08.474Z,5.90
2022-12-08T21:15:36.492Z,6.70
2022-12-08T21:18:04.436Z,6.07
2022-12-08T21:20:34.972Z,6.37
2022-12-08T21:23:02.654Z,6.40
2022-12-08T21:25:32.060Z,6.30
2022-12-08T21:27:59.791Z,7.10
2022-12-08T21:30:29.830Z,7.60
2022-12-08T21:33:00.249Z,6.03
2022-12-08T21:35:28.536Z,7.60
2022-12-08T21:37:58.304Z,7.00
2022-12-08T21:40:26.993Z,6.50
2022-12-08T21:42:56.330Z,6.37
2022-12-08T21:45:24.203Z,7.40
2022-12-08T21:47:52.058Z,6.30
2022-12-08T21:50:20.247Z,6.23
2022-12-08T21:52:49.991Z,7.00
2022-12-08T21:55:19.144Z,6.97
2022-12-08T21:57:47.474Z,6.53
2022-12-08T22:00:18.173Z,6.60
2022-12-08T22:02:46.435Z,7.30
2022-12-08T22:05:14.337Z,5.80
2022-12-08T22:07:42.430Z,5.83
2022-12-08T22:10:11.381Z,7.40
2022-12-08T22:12:39.903Z,6.13
2022-12-08T22:15:09.076Z,7.33
2022-12-08T22:17:41.659Z,6.83
2022-12-08T22:20:12.450Z,7.33
2022-12-08T22:22:40.913Z,7.53
2022-12-08T22:25:11.938Z,6.20
2022-12-08T22:27:40.726Z,7.13
2022-12-08T22:30:11.885Z,7.13
2022-12-08T22:32:43.767Z,7.13
2022-12-08T22:35:12.104Z,7.00
2022-12-08T22:37:40.356Z,6.40
2022-12-08T22:40:09.285Z,6.50
2022-12-08T22:42:37.180Z,7.87
2022-12-08T22:45:07.282Z,6.87
2022-12-08T22:47:35.828Z,6.57
2022-12-08T22:50:06.484Z,6.87
2022-12-08T22:52:34.656Z,7.33
2022-12-08T22:55:02.440Z,6.70
2022-12-08T22:57:30.500Z,7.60
2022-12-08T22:59:58.124Z,7.17
2022-12-08T23:02:25.932Z,8.60
2022-12-08T23:04:56.889Z,7.67
2022-12-08T23:07:26.029Z,7.90
2022-12-08T23:09:53.706Z,9.07
2022-12-08T23:12:22.809Z,8.90
2022-12-08T23:14:50.511Z,8.57
2022-12-08T23:17:18.413Z,7.97
2022-12-08T23:19:46.279Z,7.90
2022-12-08T23:22:13.960Z,7.83
2022-12-08T23:24:43.286Z,8.67
2022-12-08T23:27:14.170Z,8.80
2022-12-08T23:29:41.850Z,9.30
2022-12-08T23:32:11.212Z,9.70
2022-12-08T23:34:39.207Z,9.97
2022-12-08T23:37:07.144Z,9.60
2022-12-08T23:39:34.845Z,9.77
2022-12-08T23:42:03.809Z,10.30
2022-12-08T23:44:31.691Z,10.00
2022-12-08T23:46:59.597Z,9.47
2022-12-08T23:49:27.605Z,9.50
2022-12-08T23:51:55.223Z,9.60
2022-12-08T23:54:23.157Z,10.80
2022-12-08T23:56:51.125Z,10.97
2022-12-08T23:59:20.396Z,11.60
